Joseph Sause — WTW9258 — position and weather

sailwx.info

Track history (hours):
 
Tides and Currents Weather Stations Pressure Air Temp Water Temp Dewpoint Dewpoint Depression Visibility Wind Speed Wind Dir Waves Ship Positions

Joseph Sause

Owner: Sause Bros. Inc., COOS BAY, OR. More information available from US FCC via Universal Licensing System and Coast Guard Vessel Documentation Center.

Last reported at 2017-Oct-23 04:21 UTC. Time now 2017-Oct-23 04:52 UTC.
Position N 47°16' W 122°24'.

Type: Tow > 200 m length. MMSI: 367007880.

Date/timePositionNaut miles runAvg speedWind from/ knotsBaromVisibWave heightAir tempDewpointWater temp
2017-Oct-23 04:21N 47°16' W 122°24'0 0.0
2017-Oct-23 03:57N 47°16' W 122°24'0 0.0
2017-Oct-23 03:21N 47°16' W 122°24'0 0.0
2017-Oct-23 02:45N 47°16' W 122°24'0 0.0
2017-Oct-22 12:48N 47°16' W 122°24'0 0.0
2017-Oct-22 12:12N 47°16' W 122°24'0 0.0
2017-Oct-22 11:48N 47°16' W 122°24'0 0.0
2017-Oct-22 06:23N 47°16' W 122°24'0 0.0
2017-Oct-22 05:58N 47°16' W 122°24'0 0.0
2017-Oct-22 05:22N 47°16' W 122°24'0 0.1
2017-Oct-22 05:00N 47°16' W 122°24'1 2.6
2017-Oct-22 04:30N 47°17' W 122°25'1 1.9
2017-Oct-22 04:00N 47°17' W 122°26'2 3.7
2017-Oct-22 03:30N 47°19' W 122°28'2 3.2
2017-Oct-22 03:00N 47°20' W 122°27'3 7.0
2017-Oct-22 02:30N 47°22' W 122°23'3 6.0
2017-Oct-22 02:00N 47°25' W 122°24'4 8.0
2017-Oct-22 01:30N 47°29' W 122°26'4 8.1
2017-Oct-22 01:00N 47°33' W 122°27'4 8.1
2017-Oct-22 00:30N 47°37' W 122°28'4 8.3
2017-Oct-22 00:00N 47°41' W 122°28'4 8.5
2017-Oct-21 23:30N 47°45' W 122°27'4 8.8
2017-Oct-21 23:00N 47°50' W 122°28'4 8.7
2017-Oct-21 22:30N 47°54' W 122°30'4 8.9
2017-Oct-21 22:00N 47°57' W 122°34'21 8.4
2017-Oct-21 19:33N 48°15' W 122°49'0 8.7
2017-Oct-21 19:30N 48°16' W 122°49'5 8.9
2017-Oct-21 19:00N 48°20' W 122°47'5 8.9
2017-Oct-21 18:28N 48°25' W 122°45'4 9.6
2017-Oct-21 18:00N 48°29' W 122°45'510.4
2017-Oct-21 17:30N 48°34' W 122°45'510.1
2017-Oct-21 17:00N 48°39' W 122°44'4 8.7
2017-Oct-21 16:30N 48°43' W 122°46'4 8.1
2017-Oct-21 16:00N 48°46' W 122°50'5 8.9
2017-Oct-21 15:29N 48°48' W 122°57'4 8.5
2017-Oct-21 15:00N 48°50' W 123°02'8 8.1
2017-Oct-21 14:00N 48°55' W 123°12'4 8.0
2017-Oct-21 13:30N 48°58' W 123°16'4 7.7
2017-Oct-21 13:00N 49°01' W 123°20'4 7.9
2017-Oct-21 12:30N 49°03' W 123°24'4 8.0
2017-Oct-21 12:00N 49°08' W 123°24'3 6.9
2017-Oct-21 11:30N 49°11' W 123°23'4 7.6
2017-Oct-21 11:00N 49°15' W 123°22'4 8.6
2017-Oct-21 10:30N 49°18' W 123°18'5 9.1
2017-Oct-21 10:00N 49°19' W 123°12'3 5.7
2017-Oct-21 09:30N 49°19' W 123°07'4 7.2
2017-Oct-21 09:00N 49°18' W 123°02'2 3.5
2017-Oct-21 08:29N 49°18' W 122°59'1 1.4
2017-Oct-21 07:58N 49°18' W 122°58'0 0.0
2017-Oct-21 07:25N 49°18' W 122°58'0 0.0
2017-Oct-21 06:55N 49°18' W 122°58'0 0.0
2017-Oct-21 06:28N 49°18' W 122°58'0 0.0
2017-Oct-21 05:58N 49°18' W 122°58'0 0.0
2017-Oct-21 05:28N 49°18' W 122°58'0 0.0
2017-Oct-21 04:58N 49°18' W 122°58'0 0.0
2017-Oct-21 04:28N 49°18' W 122°58'0 0.0
2017-Oct-21 03:58N 49°18' W 122°58'0 0.0
2017-Oct-21 03:30N 49°18' W 122°58'0 0.0
2017-Oct-21 03:00N 49°18' W 122°58'0 0.0
2017-Oct-21 02:30N 49°18' W 122°58'1 1.4
2017-Oct-21 02:00N 49°17' W 122°57'0 0.0
2017-Oct-20 16:01N 49°17' W 122°57'0 0.0
2017-Oct-20 16:00N 49°17' W 122°57'0 0.0
2017-Oct-20 15:30N 49°17' W 122°57'0 0.7
2017-Oct-20 15:00N 49°18' W 122°58'3 6.8
2017-Oct-20 14:30N 49°18' W 123°03'5 4.7
2017-Oct-20 13:30N 49°18' W 123°10'0 0.9
2017-Oct-20 12:58N 49°17' W 123°10'0 0.0
2017-Oct-20 12:30N 49°17' W 123°10'0 0.0
2017-Oct-20 12:00N 49°17' W 123°10'0 0.0
2017-Oct-20 11:30N 49°17' W 123°10'0 0.1
2017-Oct-20 11:00N 49°17' W 123°10'0 0.0
2017-Oct-20 10:30N 49°17' W 123°10'0 0.0
2017-Oct-20 10:00N 49°17' W 123°10'0 0.0
2017-Oct-20 09:30N 49°17' W 123°10'0 0.1
2017-Oct-20 09:00N 49°17' W 123°10'0 0.1
2017-Oct-20 08:30N 49°17' W 123°10'0 0.1
2017-Oct-20 08:00N 49°17' W 123°10'0 0.0
2017-Oct-20 07:30N 49°17' W 123°10'0 0.0
2017-Oct-20 07:00N 49°17' W 123°10'1 1.7
2017-Oct-20 06:30N 49°17' W 123°11'4 8.3
2017-Oct-20 06:00N 49°17' W 123°17'510.2
2017-Oct-20 05:30N 49°12' W 123°19'5 9.8
2017-Oct-20 05:00N 49°07' W 123°20'4 8.9
2017-Oct-20 04:30N 49°03' W 123°18'5 9.6
2017-Oct-20 04:00N 48°60' W 123°13'5 9.4
2017-Oct-20 03:30N 48°57' W 123°07'5 9.4
2017-Oct-20 03:00N 48°54' W 123°02'610.7
2017-Oct-20 02:29N 48°50' W 122°55'510.3
2017-Oct-20 02:00N 48°47' W 122°50'510.3
2017-Oct-20 01:30N 48°43' W 122°44'510.2
2017-Oct-20 01:00N 48°38' W 122°44'511.0
2017-Oct-20 00:30N 48°33' W 122°45'611.6
2017-Oct-20 00:00N 48°27' W 122°44'611.0
2017-Oct-19 23:29N 48°21' W 122°45'6 8.8
2017-Oct-19 22:48N 48°15' W 122°47'18 7.8
2017-Oct-19 20:31N 47°59' W 122°35'010.0
2017-Oct-19 20:30N 47°59' W 122°35'5 9.5
2017-Oct-19 20:00N 47°56' W 122°30'510.3
2017-Oct-19 19:30N 47°51' W 122°27'611.0
2017-Oct-19 19:00N 47°46' W 122°26'611.4
2017-Oct-19 18:30N 47°40' W 122°27'611.2
2017-Oct-19 18:00N 47°35' W 122°27'510.9
2017-Oct-19 17:30N 47°29' W 122°24'510.9
2017-Oct-19 17:00N 47°24' W 122°21'5 9.6
2017-Oct-19 16:30N 47°20' W 122°25'3 6.7
2017-Oct-19 16:00N 47°17' W 122°26'1 2.0
2017-Oct-19 15:30N 47°16' W 122°25'0 0.0
2017-Oct-19 15:00N 47°16' W 122°25'0 0.0
2017-Oct-19 14:30N 47°16' W 122°25'0 0.0
2017-Oct-19 14:00N 47°16' W 122°25'0 0.0
2017-Oct-19 13:30N 47°16' W 122°25'0 0.0
2017-Oct-19 13:00N 47°16' W 122°25'0 0.0
2017-Oct-19 12:30N 47°16' W 122°25'0 0.0
2017-Oct-19 12:00N 47°16' W 122°25'0 0.0
2017-Oct-19 11:30N 47°16' W 122°25'0 0.0
2017-Oct-19 11:00N 47°16' W 122°25'0 0.0
2017-Oct-19 10:30N 47°16' W 122°25'0 0.0
2017-Oct-19 10:00N 47°16' W 122°25'0 0.0
2017-Oct-19 09:30N 47°16' W 122°25'0 0.0
2017-Oct-19 09:00N 47°16' W 122°25'0 0.0
2017-Oct-19 08:30N 47°16' W 122°25'0 0.0
2017-Oct-19 08:00N 47°16' W 122°25'0 0.0
2017-Oct-19 07:30N 47°16' W 122°25'0 0.0
2017-Oct-19 07:00N 47°16' W 122°25'0 0.0
2017-Oct-19 06:30N 47°16' W 122°25'0 0.0
2017-Oct-19 06:00N 47°16' W 122°25'0 0.0
2017-Oct-19 05:30N 47°16' W 122°25'0 0.0
2017-Oct-19 05:00N 47°16' W 122°25'0 0.0
2017-Oct-19 04:30N 47°16' W 122°25'0 0.0
2017-Oct-19 04:00N 47°16' W 122°25'0 0.0
2017-Oct-19 03:30N 47°16' W 122°25'0 0.0
2017-Oct-19 03:00N 47°16' W 122°25'0 0.0
2017-Oct-19 02:27N 47°16' W 122°25'0 0.0
2017-Oct-19 02:00N 47°16' W 122°25'0 0.0
2017-Oct-19 01:30N 47°16' W 122°25'0 0.0
2017-Oct-19 00:48N 47°16' W 122°25'0 0.0
2017-Oct-19 00:27N 47°16' W 122°25'0 0.0
2017-Oct-18 23:54N 47°16' W 122°25'0 0.0
2017-Oct-18 23:30N 47°16' W 122°25'0 0.0
2017-Oct-18 22:51N 47°16' W 122°25'0 0.0
2017-Oct-18 22:30N 47°16' W 122°25'0 0.0
2017-Oct-18 22:00N 47°16' W 122°25'0 0.0
2017-Oct-18 21:30N 47°16' W 122°25'0 0.0
2017-Oct-18 21:00N 47°16' W 122°25'0 0.0
2017-Oct-18 20:27N 47°16' W 122°25'0 0.0
2017-Oct-18 20:00N 47°16' W 122°25'0 0.0
2017-Oct-18 19:15N 47°16' W 122°25'0 0.0
2017-Oct-18 19:00N 47°16' W 122°25'0 0.0
2017-Oct-18 18:21N 47°16' W 122°25'0 0.0
2017-Oct-18 17:57N 47°16' W 122°25'0 0.0
2017-Oct-18 17:30N 47°16' W 122°25'0 0.0
2017-Oct-18 17:00N 47°16' W 122°25'0 0.0
2017-Oct-18 16:30N 47°16' W 122°25'0 0.0
2017-Oct-18 16:00N 47°16' W 122°25'0 0.0
2017-Oct-18 15:30N 47°16' W 122°25'0 0.0
2017-Oct-18 14:57N 47°16' W 122°25'0 0.0
2017-Oct-18 14:00N 47°16' W 122°25'0 0.0
2017-Oct-18 13:30N 47°16' W 122°25'0 0.0
2017-Oct-18 13:00N 47°16' W 122°25'0 0.0
2017-Oct-18 12:30N 47°16' W 122°25'0 0.0
2017-Oct-18 12:00N 47°16' W 122°25'0 0.0
2017-Oct-18 11:30N 47°16' W 122°25'0 0.0
2017-Oct-18 11:00N 47°16' W 122°25'0 0.0
2017-Oct-18 10:29N 47°16' W 122°25'0 0.0
2017-Oct-18 09:59N 47°16' W 122°25'0 0.0
2017-Oct-18 09:29N 47°16' W 122°25'0 0.0
2017-Oct-18 08:59N 47°16' W 122°25'0 0.0
2017-Oct-18 08:29N 47°16' W 122°25'0 0.0
2017-Oct-18 07:59N 47°16' W 122°25'0 0.0
2017-Oct-18 07:26N 47°16' W 122°25'0 0.0
2017-Oct-18 06:59N 47°16' W 122°25'0 0.0
2017-Oct-18 06:29N 47°16' W 122°25'0 0.0
2017-Oct-18 05:59N 47°16' W 122°25'0 0.0
2017-Oct-18 05:29N 47°16' W 122°25'0 0.0
2017-Oct-18 04:59N 47°16' W 122°25'0 0.0
2017-Oct-18 04:29N 47°16' W 122°25'0 0.0
2017-Oct-18 03:59N 47°16' W 122°25'0 0.0
2017-Oct-18 03:29N 47°16' W 122°25'0 0.0
2017-Oct-18 02:56N 47°16' W 122°25'0 0.0
2017-Oct-18 02:29N 47°16' W 122°25'0 0.0
2017-Oct-18 01:59N 47°16' W 122°25'0 0.0
2017-Oct-18 01:29N 47°16' W 122°25'0 0.0
2017-Oct-18 00:59N 47°16' W 122°25'0 0.0
2017-Oct-18 00:29N 47°16' W 122°25'0 0.0
2017-Oct-17 23:59N 47°16' W 122°25'0 0.0
2017-Oct-17 23:29N 47°16' W 122°25'0 0.0
2017-Oct-17 22:59N 47°16' W 122°25'0 0.0
2017-Oct-17 22:29N 47°16' W 122°25'0 0.0
2017-Oct-17 21:59N 47°16' W 122°25'0 0.0
2017-Oct-17 21:29N 47°16' W 122°25'0 0.0
2017-Oct-17 20:59N 47°16' W 122°25'0 0.0
2017-Oct-17 20:29N 47°16' W 122°25'0 0.0
2017-Oct-17 19:59N 47°16' W 122°25'0 0.0
2017-Oct-17 19:29N 47°16' W 122°25'0 0.0
2017-Oct-17 18:59N 47°16' W 122°25'0 0.0
2017-Oct-17 18:29N 47°16' W 122°25'0 0.0
2017-Oct-17 17:59N 47°16' W 122°25'0 0.0
2017-Oct-17 17:29N 47°16' W 122°25'0 0.0
2017-Oct-17 16:59N 47°16' W 122°25'0 0.0
2017-Oct-17 16:29N 47°16' W 122°25'0 0.0
2017-Oct-17 15:56N 47°16' W 122°25'0 0.0
2017-Oct-17 15:14N 47°16' W 122°25'0 0.0
2017-Oct-17 14:59N 47°16' W 122°25'0 0.0
2017-Oct-17 14:29N 47°16' W 122°25'0 0.0
2017-Oct-17 13:59N 47°16' W 122°25'0 0.0
2017-Oct-16 20:13N 47°16' W 122°25'0 0.0
2017-Oct-16 18:49N 47°16' W 122°25'0 0.0
2017-Oct-16 18:22N 47°16' W 122°25'0 0.0
2017-Oct-16 17:58N 47°16' W 122°25'0 0.0
2017-Oct-16 17:28N 47°16' W 122°25'0 0.0
2017-Oct-16 16:58N 47°16' W 122°25'0 0.0
2017-Oct-16 16:28N 47°16' W 122°25'0 0.0
2017-Oct-16 15:55N 47°16' W 122°25'0 0.0
2017-Oct-16 14:04N 47°16' W 122°25'0 0.0
2017-Oct-16 13:28N 47°16' W 122°25'0 0.0
2017-Oct-16 12:58N 47°16' W 122°25'0 0.0
2017-Oct-16 12:25N 47°16' W 122°25'0 0.0
2017-Oct-16 11:55N 47°16' W 122°25'0 0.0
2017-Oct-16 11:28N 47°16' W 122°25'0 0.0
2017-Oct-16 10:58N 47°16' W 122°25'0 0.0
2017-Oct-16 10:22N 47°16' W 122°25'0 0.0
2017-Oct-16 09:55N 47°16' W 122°25'0 0.0
2017-Oct-16 09:28N 47°16' W 122°25'0 0.0
2017-Oct-16 08:58N 47°16' W 122°25'0 0.0
2017-Oct-16 08:25N 47°16' W 122°25'0 0.0
2017-Oct-16 07:58N 47°16' W 122°25'0 0.0
2017-Oct-16 07:25N 47°16' W 122°25'0 0.0
2017-Oct-16 06:58N 47°16' W 122°25'0 0.0
2017-Oct-16 06:28N 47°16' W 122°25'0 0.0
2017-Oct-16 05:58N 47°16' W 122°25'0 0.0
2017-Oct-16 05:28N 47°16' W 122°25'0 0.0
2017-Oct-16 04:58N 47°16' W 122°25'0 0.0
2017-Oct-16 04:28N 47°16' W 122°25'0 0.0
2017-Oct-16 03:55N 47°16' W 122°25'0 0.0
2017-Oct-16 03:25N 47°16' W 122°25'0 0.0
2017-Oct-16 02:55N 47°16' W 122°25'0 0.0
2017-Oct-16 02:28N 47°16' W 122°25'0 0.0
2017-Oct-16 01:58N 47°16' W 122°25'0 0.0
2017-Oct-16 01:28N 47°16' W 122°25'0 0.0
2017-Oct-16 00:58N 47°16' W 122°25'0 0.0
2017-Oct-16 00:25N 47°16' W 122°25'0 0.0
2017-Oct-15 23:49N 47°16' W 122°25'0 0.0
2017-Oct-15 23:25N 47°16' W 122°25'0 0.0
2017-Oct-15 22:58N 47°16' W 122°25'0 0.0
2017-Oct-15 22:28N 47°16' W 122°25'0 0.0
2017-Oct-15 21:58N 47°16' W 122°25'0 1.1
2017-Oct-15 21:30N 47°16' W 122°25'1 2.1
2017-Oct-15 20:59N 47°16' W 122°24'0 0.0
2017-Oct-15 20:29N 47°16' W 122°24'1 3.0
2017-Oct-15 19:59N 47°16' W 122°26'0 0.0
2017-Oct-15 19:29N 47°16' W 122°26'0 0.0
2017-Oct-15 18:59N 47°16' W 122°26'0 0.0
2017-Oct-15 18:29N 47°16' W 122°26'0 0.0
2017-Oct-15 17:59N 47°16' W 122°26'0 0.0
2017-Oct-15 17:29N 47°16' W 122°26'0 0.0
2017-Oct-15 16:59N 47°16' W 122°26'0 0.0
2017-Oct-15 16:29N 47°16' W 122°26'0 0.0
2017-Oct-15 15:59N 47°16' W 122°26'0 0.0
2017-Oct-15 15:29N 47°16' W 122°26'0 0.0
2017-Oct-15 14:59N 47°16' W 122°26'0 0.0
2017-Oct-15 13:59N 47°16' W 122°26'0 0.0
2017-Oct-15 13:29N 47°16' W 122°26'0 0.0
2017-Oct-15 12:59N 47°16' W 122°26'0 0.0
2017-Oct-15 12:29N 47°16' W 122°26'0 0.0
2017-Oct-15 11:59N 47°16' W 122°26'0 0.0
2017-Oct-15 11:29N 47°16' W 122°26'0 0.0
2017-Oct-15 10:59N 47°16' W 122°26'0 0.0
2017-Oct-15 10:29N 47°16' W 122°26'0 0.0
2017-Oct-15 09:59N 47°16' W 122°26'0 0.0
2017-Oct-15 09:29N 47°16' W 122°26'0 0.0
2017-Oct-15 08:56N 47°16' W 122°26'0 0.0
2017-Oct-15 08:29N 47°16' W 122°26'0 0.0
2017-Oct-15 07:59N 47°16' W 122°26'0 0.0
2017-Oct-15 07:29N 47°16' W 122°26'0 0.0
2017-Oct-15 06:59N 47°16' W 122°26'0 0.0
2017-Oct-15 06:29N 47°16' W 122°26'0 0.0
2017-Oct-15 05:59N 47°16' W 122°26'0 0.0
2017-Oct-15 05:29N 47°16' W 122°26'0 0.0
2017-Oct-15 04:59N 47°16' W 122°26'0 0.0
2017-Oct-15 04:29N 47°16' W 122°26'0 0.0
2017-Oct-15 03:59N 47°16' W 122°26'0 0.0
2017-Oct-15 03:30N 47°16' W 122°26'0 0.0
2017-Oct-15 03:00N 47°16' W 122°26'1 3.0
2017-Oct-15 02:30N 47°16' W 122°24'0 0.0
2017-Oct-15 02:00N 47°16' W 122°24'0 0.1
2017-Oct-15 01:30N 47°16' W 122°24'2 4.0
2017-Oct-15 01:00N 47°17' W 122°26'0 0.9
2017-Oct-15 00:30N 47°17' W 122°27'2 3.9
2017-Oct-15 00:00N 47°19' W 122°28'3 5.6
2017-Oct-14 23:30N 47°21' W 122°25'3 5.8
2017-Oct-14 23:00N 47°23' W 122°22'3 6.1
2017-Oct-14 22:30N 47°26' W 122°24'3 6.0
2017-Oct-14 22:00N 47°29' W 122°26'3 5.9
2017-Oct-14 21:30N 47°31' W 122°27'3 6.1
2017-Oct-14 21:00N 47°34' W 122°28'3 6.0
2017-Oct-14 20:30N 47°37' W 122°28'3 6.0
2017-Oct-14 20:00N 47°40' W 122°28'3 6.0
2017-Oct-14 19:30N 47°43' W 122°28'3 6.0
2017-Oct-14 19:00N 47°46' W 122°27'3 5.9
2017-Oct-14 18:30N 47°49' W 122°28'3 5.9
2017-Oct-14 18:00N 47°52' W 122°29'3 5.6
2017-Oct-14 17:30N 47°55' W 122°30'3 6.0
2017-Oct-14 17:00N 47°57' W 122°34'3 6.7
2017-Oct-14 16:30N 47°59' W 122°37'4 5.9
2017-Oct-14 15:51N 48°03' W 122°39'2 5.9
2017-Oct-14 15:27N 48°05' W 122°40'10 5.4
2017-Oct-14 13:33N 48°13' W 122°50'1 4.7
2017-Oct-14 13:25N 48°14' W 122°50'4 6.4
2017-Oct-14 12:50N 48°17' W 122°48'3 6.5
2017-Oct-14 12:23N 48°20' W 122°47'3 9.1
2017-Oct-14 12:00N 48°23' W 122°45'510.4
2017-Oct-14 11:30N 48°29' W 122°45'611.0
2017-Oct-14 11:00N 48°34' W 122°45'510.7
2017-Oct-14 10:30N 48°39' W 122°44'5 9.3
2017-Oct-14 10:00N 48°44' W 122°46'5 9.6
2017-Oct-14 09:30N 48°47' W 122°52'510.1
2017-Oct-14 09:00N 48°49' W 122°59'510.0
2017-Oct-14 08:30N 48°52' W 123°05'5 9.6
2017-Oct-14 08:00N 48°55' W 123°11'5 9.4
2017-Oct-14 07:30N 48°58' W 123°16'5 9.3
2017-Oct-14 07:00N 49°01' W 123°21'4 8.7
2017-Oct-14 06:30N 49°05' W 123°25'5 9.2
2017-Oct-14 06:00N 49°09' W 123°23'5 9.1
2017-Oct-14 05:30N 49°14' W 123°22'4 9.0
2017-Oct-14 05:00N 49°18' W 123°19'5 9.1
2017-Oct-14 04:30N 49°19' W 123°12'4 7.5
2017-Oct-14 04:00N 49°18' W 123°07'3 7.0
2017-Oct-14 03:30N 49°18' W 123°01'2 3.4
2017-Oct-14 03:00N 49°18' W 122°59'1 1.1
2017-Oct-14 02:30N 49°18' W 122°58'0 0.0
2017-Oct-14 02:00N 49°18' W 122°58'0 0.0
2017-Oct-14 01:30N 49°18' W 122°58'0 0.0
2017-Oct-14 01:00N 49°18' W 122°58'0 0.6
2017-Oct-14 00:30N 49°18' W 122°58'0 0.8
2017-Oct-13 23:59N 49°17' W 122°57'0 0.0
2017-Oct-13 23:28N 49°17' W 122°57'0 0.0
2017-Oct-13 15:14N 49°17' W 122°57'0 0.0
2017-Oct-13 15:00N 49°17' W 122°57'0 0.1
2017-Oct-13 14:30N 49°18' W 122°57'1 2.1
2017-Oct-13 14:00N 49°18' W 122°59'3 6.9
2017-Oct-13 13:30N 49°18' W 123°04'3 6.6
2017-Oct-13 13:00N 49°19' W 123°09'2 3.7
2017-Oct-13 12:29N 49°17' W 123°10'0 0.0
2017-Oct-13 11:59N 49°17' W 123°10'0 0.0
2017-Oct-13 11:29N 49°17' W 123°10'0 0.0
2017-Oct-13 10:59N 49°17' W 123°10'0 0.0
2017-Oct-13 10:29N 49°17' W 123°10'0 0.0
2017-Oct-13 09:56N 49°17' W 123°10'0 0.0
2017-Oct-13 09:29N 49°17' W 123°10'0 0.0
2017-Oct-13 08:59N 49°17' W 123°10'0 0.0
2017-Oct-13 08:29N 49°17' W 123°10'0 0.0
2017-Oct-13 07:59N 49°17' W 123°10'0 0.0
2017-Oct-13 07:29N 49°17' W 123°10'0 0.0
2017-Oct-13 06:59N 49°17' W 123°10'0 0.0
2017-Oct-13 06:29N 49°17' W 123°10'0 0.0
2017-Oct-13 05:59N 49°17' W 123°10'0 0.0
2017-Oct-13 05:29N 49°17' W 123°10'0 0.0
2017-Oct-13 04:59N 49°17' W 123°10'0 0.8
2017-Oct-13 04:30N 49°17' W 123°10'  
Track history (hours):
 
Tides and Currents Weather Stations Pressure Air Temp Water Temp Dewpoint Dewpoint Depression Visibility Wind Speed Wind Dir Waves Ship Positions

Joseph Sause

Owner: Sause Bros. Inc., COOS BAY, OR. More information available from US FCC via Universal Licensing System and Coast Guard Vessel Documentation Center.

Last reported at 2017-Oct-23 04:21 UTC. Time now 2017-Oct-23 04:52 UTC.
Position N 47°16' W 122°24'.

Type: Tow > 200 m length. MMSI: 367007880.

Date/timePositionNaut miles runAvg speedWind from/ knotsBaromVisibWave heightAir tempDewpointWater temp
2017-Oct-23 04:21N 47°16' W 122°24'0 0.0
2017-Oct-23 03:57N 47°16' W 122°24'0 0.0
2017-Oct-23 03:21N 47°16' W 122°24'0 0.0
2017-Oct-23 02:45N 47°16' W 122°24'0 0.0
2017-Oct-22 12:48N 47°16' W 122°24'0 0.0
2017-Oct-22 12:12N 47°16' W 122°24'0 0.0
2017-Oct-22 11:48N 47°16' W 122°24'0 0.0
2017-Oct-22 06:23N 47°16' W 122°24'0 0.0
2017-Oct-22 05:58N 47°16' W 122°24'0 0.0
2017-Oct-22 05:22N 47°16' W 122°24'0 0.1
2017-Oct-22 05:00N 47°16' W 122°24'1 2.6
2017-Oct-22 04:30N 47°17' W 122°25'1 1.9
2017-Oct-22 04:00N 47°17' W 122°26'2 3.7
2017-Oct-22 03:30N 47°19' W 122°28'2 3.2
2017-Oct-22 03:00N 47°20' W 122°27'3 7.0
2017-Oct-22 02:30N 47°22' W 122°23'3 6.0
2017-Oct-22 02:00N 47°25' W 122°24'4 8.0
2017-Oct-22 01:30N 47°29' W 122°26'4 8.1
2017-Oct-22 01:00N 47°33' W 122°27'4 8.1
2017-Oct-22 00:30N 47°37' W 122°28'4 8.3
2017-Oct-22 00:00N 47°41' W 122°28'4 8.5
2017-Oct-21 23:30N 47°45' W 122°27'4 8.8
2017-Oct-21 23:00N 47°50' W 122°28'4 8.7
2017-Oct-21 22:30N 47°54' W 122°30'4 8.9
2017-Oct-21 22:00N 47°57' W 122°34'21 8.4
2017-Oct-21 19:33N 48°15' W 122°49'0 8.7
2017-Oct-21 19:30N 48°16' W 122°49'5 8.9
2017-Oct-21 19:00N 48°20' W 122°47'5 8.9
2017-Oct-21 18:28N 48°25' W 122°45'4 9.6
2017-Oct-21 18:00N 48°29' W 122°45'510.4
2017-Oct-21 17:30N 48°34' W 122°45'510.1
2017-Oct-21 17:00N 48°39' W 122°44'4 8.7
2017-Oct-21 16:30N 48°43' W 122°46'4 8.1
2017-Oct-21 16:00N 48°46' W 122°50'5 8.9
2017-Oct-21 15:29N 48°48' W 122°57'4 8.5
2017-Oct-21 15:00N 48°50' W 123°02'8 8.1
2017-Oct-21 14:00N 48°55' W 123°12'4 8.0
2017-Oct-21 13:30N 48°58' W 123°16'4 7.7
2017-Oct-21 13:00N 49°01' W 123°20'4 7.9
2017-Oct-21 12:30N 49°03' W 123°24'4 8.0
2017-Oct-21 12:00N 49°08' W 123°24'3 6.9
2017-Oct-21 11:30N 49°11' W 123°23'4 7.6
2017-Oct-21 11:00N 49°15' W 123°22'4 8.6
2017-Oct-21 10:30N 49°18' W 123°18'5 9.1
2017-Oct-21 10:00N 49°19' W 123°12'3 5.7
2017-Oct-21 09:30N 49°19' W 123°07'4 7.2
2017-Oct-21 09:00N 49°18' W 123°02'2 3.5
2017-Oct-21 08:29N 49°18' W 122°59'1 1.4
2017-Oct-21 07:58N 49°18' W 122°58'0 0.0
2017-Oct-21 07:25N 49°18' W 122°58'0 0.0
2017-Oct-21 06:55N 49°18' W 122°58'0 0.0
2017-Oct-21 06:28N 49°18' W 122°58'0 0.0
2017-Oct-21 05:58N 49°18' W 122°58'0 0.0
2017-Oct-21 05:28N 49°18' W 122°58'0 0.0
2017-Oct-21 04:58N 49°18' W 122°58'0 0.0
2017-Oct-21 04:28N 49°18' W 122°58'0 0.0
2017-Oct-21 03:58N 49°18' W 122°58'0 0.0
2017-Oct-21 03:30N 49°18' W 122°58'0 0.0
2017-Oct-21 03:00N 49°18' W 122°58'0 0.0
2017-Oct-21 02:30N 49°18' W 122°58'1 1.4
2017-Oct-21 02:00N 49°17' W 122°57'0 0.0
2017-Oct-20 16:01N 49°17' W 122°57'0 0.0
2017-Oct-20 16:00N 49°17' W 122°57'0 0.0
2017-Oct-20 15:30N 49°17' W 122°57'0 0.7
2017-Oct-20 15:00N 49°18' W 122°58'3 6.8
2017-Oct-20 14:30N 49°18' W 123°03'5 4.7
2017-Oct-20 13:30N 49°18' W 123°10'0 0.9
2017-Oct-20 12:58N 49°17' W 123°10'0 0.0
2017-Oct-20 12:30N 49°17' W 123°10'0 0.0
2017-Oct-20 12:00N 49°17' W 123°10'0 0.0
2017-Oct-20 11:30N 49°17' W 123°10'0 0.1
2017-Oct-20 11:00N 49°17' W 123°10'0 0.0
2017-Oct-20 10:30N 49°17' W 123°10'0 0.0
2017-Oct-20 10:00N 49°17' W 123°10'0 0.0
2017-Oct-20 09:30N 49°17' W 123°10'0 0.1
2017-Oct-20 09:00N 49°17' W 123°10'0 0.1
2017-Oct-20 08:30N 49°17' W 123°10'0 0.1
2017-Oct-20 08:00N 49°17' W 123°10'0 0.0
2017-Oct-20 07:30N 49°17' W 123°10'0 0.0
2017-Oct-20 07:00N 49°17' W 123°10'1 1.7
2017-Oct-20 06:30N 49°17' W 123°11'4 8.3
2017-Oct-20 06:00N 49°17' W 123°17'510.2
2017-Oct-20 05:30N 49°12' W 123°19'5 9.8
2017-Oct-20 05:00N 49°07' W 123°20'4 8.9
2017-Oct-20 04:30N 49°03' W 123°18'5 9.6
2017-Oct-20 04:00N 48°60' W 123°13'5 9.4
2017-Oct-20 03:30N 48°57' W 123°07'5 9.4
2017-Oct-20 03:00N 48°54' W 123°02'610.7
2017-Oct-20 02:29N 48°50' W 122°55'510.3
2017-Oct-20 02:00N 48°47' W 122°50'510.3
2017-Oct-20 01:30N 48°43' W 122°44'510.2
2017-Oct-20 01:00N 48°38' W 122°44'511.0
2017-Oct-20 00:30N 48°33' W 122°45'611.6
2017-Oct-20 00:00N 48°27' W 122°44'611.0
2017-Oct-19 23:29N 48°21' W 122°45'6 8.8
2017-Oct-19 22:48N 48°15' W 122°47'18 7.8
2017-Oct-19 20:31N 47°59' W 122°35'010.0
2017-Oct-19 20:30N 47°59' W 122°35'5 9.5
2017-Oct-19 20:00N 47°56' W 122°30'510.3
2017-Oct-19 19:30N 47°51' W 122°27'611.0
2017-Oct-19 19:00N 47°46' W 122°26'611.4
2017-Oct-19 18:30N 47°40' W 122°27'611.2
2017-Oct-19 18:00N 47°35' W 122°27'510.9
2017-Oct-19 17:30N 47°29' W 122°24'510.9
2017-Oct-19 17:00N 47°24' W 122°21'5 9.6
2017-Oct-19 16:30N 47°20' W 122°25'3 6.7
2017-Oct-19 16:00N 47°17' W 122°26'1 2.0
2017-Oct-19 15:30N 47°16' W 122°25'0 0.0
2017-Oct-19 15:00N 47°16' W 122°25'0 0.0
2017-Oct-19 14:30N 47°16' W 122°25'0 0.0
2017-Oct-19 14:00N 47°16' W 122°25'0 0.0
2017-Oct-19 13:30N 47°16' W 122°25'0 0.0
2017-Oct-19 13:00N 47°16' W 122°25'0 0.0
2017-Oct-19 12:30N 47°16' W 122°25'0 0.0
2017-Oct-19 12:00N 47°16' W 122°25'0 0.0
2017-Oct-19 11:30N 47°16' W 122°25'0 0.0
2017-Oct-19 11:00N 47°16' W 122°25'0 0.0
2017-Oct-19 10:30N 47°16' W 122°25'0 0.0
2017-Oct-19 10:00N 47°16' W 122°25'0 0.0
2017-Oct-19 09:30N 47°16' W 122°25'0 0.0
2017-Oct-19 09:00N 47°16' W 122°25'0 0.0
2017-Oct-19 08:30N 47°16' W 122°25'0 0.0
2017-Oct-19 08:00N 47°16' W 122°25'0 0.0
2017-Oct-19 07:30N 47°16' W 122°25'0 0.0
2017-Oct-19 07:00N 47°16' W 122°25'0 0.0
2017-Oct-19 06:30N 47°16' W 122°25'0 0.0
2017-Oct-19 06:00N 47°16' W 122°25'0 0.0
2017-Oct-19 05:30N 47°16' W 122°25'0 0.0
2017-Oct-19 05:00N 47°16' W 122°25'0 0.0
2017-Oct-19 04:30N 47°16' W 122°25'0 0.0
2017-Oct-19 04:00N 47°16' W 122°25'0 0.0
2017-Oct-19 03:30N 47°16' W 122°25'0 0.0
2017-Oct-19 03:00N 47°16' W 122°25'0 0.0
2017-Oct-19 02:27N 47°16' W 122°25'0 0.0
2017-Oct-19 02:00N 47°16' W 122°25'0 0.0
2017-Oct-19 01:30N 47°16' W 122°25'0 0.0
2017-Oct-19 00:48N 47°16' W 122°25'0 0.0
2017-Oct-19 00:27N 47°16' W 122°25'0 0.0
2017-Oct-18 23:54N 47°16' W 122°25'0 0.0
2017-Oct-18 23:30N 47°16' W 122°25'0 0.0
2017-Oct-18 22:51N 47°16' W 122°25'0 0.0
2017-Oct-18 22:30N 47°16' W 122°25'0 0.0
2017-Oct-18 22:00N 47°16' W 122°25'0 0.0
2017-Oct-18 21:30N 47°16' W 122°25'0 0.0
2017-Oct-18 21:00N 47°16' W 122°25'0 0.0
2017-Oct-18 20:27N 47°16' W 122°25'0 0.0
2017-Oct-18 20:00N 47°16' W 122°25'0 0.0
2017-Oct-18 19:15N 47°16' W 122°25'0 0.0
2017-Oct-18 19:00N 47°16' W 122°25'0 0.0
2017-Oct-18 18:21N 47°16' W 122°25'0 0.0
2017-Oct-18 17:57N 47°16' W 122°25'0 0.0
2017-Oct-18 17:30N 47°16' W 122°25'0 0.0
2017-Oct-18 17:00N 47°16' W 122°25'0 0.0
2017-Oct-18 16:30N 47°16' W 122°25'0 0.0
2017-Oct-18 16:00N 47°16' W 122°25'0 0.0
2017-Oct-18 15:30N 47°16' W 122°25'0 0.0
2017-Oct-18 14:57N 47°16' W 122°25'0 0.0
2017-Oct-18 14:00N 47°16' W 122°25'0 0.0
2017-Oct-18 13:30N 47°16' W 122°25'0 0.0
2017-Oct-18 13:00N 47°16' W 122°25'0 0.0
2017-Oct-18 12:30N 47°16' W 122°25'0 0.0
2017-Oct-18 12:00N 47°16' W 122°25'0 0.0
2017-Oct-18 11:30N 47°16' W 122°25'0 0.0
2017-Oct-18 11:00N 47°16' W 122°25'0 0.0
2017-Oct-18 10:29N 47°16' W 122°25'0 0.0
2017-Oct-18 09:59N 47°16' W 122°25'0 0.0
2017-Oct-18 09:29N 47°16' W 122°25'0 0.0
2017-Oct-18 08:59N 47°16' W 122°25'0 0.0
2017-Oct-18 08:29N 47°16' W 122°25'0 0.0
2017-Oct-18 07:59N 47°16' W 122°25'0 0.0
2017-Oct-18 07:26N 47°16' W 122°25'0 0.0
2017-Oct-18 06:59N 47°16' W 122°25'0 0.0
2017-Oct-18 06:29N 47°16' W 122°25'0 0.0
2017-Oct-18 05:59N 47°16' W 122°25'0 0.0
2017-Oct-18 05:29N 47°16' W 122°25'0 0.0
2017-Oct-18 04:59N 47°16' W 122°25'0 0.0
2017-Oct-18 04:29N 47°16' W 122°25'0 0.0
2017-Oct-18 03:59N 47°16' W 122°25'0 0.0
2017-Oct-18 03:29N 47°16' W 122°25'0 0.0
2017-Oct-18 02:56N 47°16' W 122°25'0 0.0
2017-Oct-18 02:29N 47°16' W 122°25'0 0.0
2017-Oct-18 01:59N 47°16' W 122°25'0 0.0
2017-Oct-18 01:29N 47°16' W 122°25'0 0.0
2017-Oct-18 00:59N 47°16' W 122°25'0 0.0
2017-Oct-18 00:29N 47°16' W 122°25'0 0.0
2017-Oct-17 23:59N 47°16' W 122°25'0 0.0
2017-Oct-17 23:29N 47°16' W 122°25'0 0.0
2017-Oct-17 22:59N 47°16' W 122°25'0 0.0
2017-Oct-17 22:29N 47°16' W 122°25'0 0.0
2017-Oct-17 21:59N 47°16' W 122°25'0 0.0
2017-Oct-17 21:29N 47°16' W 122°25'0 0.0
2017-Oct-17 20:59N 47°16' W 122°25'0 0.0
2017-Oct-17 20:29N 47°16' W 122°25'0 0.0
2017-Oct-17 19:59N 47°16' W 122°25'0 0.0
2017-Oct-17 19:29N 47°16' W 122°25'0 0.0
2017-Oct-17 18:59N 47°16' W 122°25'0 0.0
2017-Oct-17 18:29N 47°16' W 122°25'0 0.0
2017-Oct-17 17:59N 47°16' W 122°25'0 0.0
2017-Oct-17 17:29N 47°16' W 122°25'0 0.0
2017-Oct-17 16:59N 47°16' W 122°25'0 0.0
2017-Oct-17 16:29N 47°16' W 122°25'0 0.0
2017-Oct-17 15:56N 47°16' W 122°25'0 0.0
2017-Oct-17 15:14N 47°16' W 122°25'0 0.0
2017-Oct-17 14:59N 47°16' W 122°25'0 0.0
2017-Oct-17 14:29N 47°16' W 122°25'0 0.0
2017-Oct-17 13:59N 47°16' W 122°25'0 0.0
2017-Oct-16 20:13N 47°16' W 122°25'0 0.0
2017-Oct-16 18:49N 47°16' W 122°25'0 0.0
2017-Oct-16 18:22N 47°16' W 122°25'0 0.0
2017-Oct-16 17:58N 47°16' W 122°25'0 0.0
2017-Oct-16 17:28N 47°16' W 122°25'0 0.0
2017-Oct-16 16:58N 47°16' W 122°25'0 0.0
2017-Oct-16 16:28N 47°16' W 122°25'0 0.0
2017-Oct-16 15:55N 47°16' W 122°25'0 0.0
2017-Oct-16 14:04N 47°16' W 122°25'0 0.0
2017-Oct-16 13:28N 47°16' W 122°25'0 0.0
2017-Oct-16 12:58N 47°16' W 122°25'0 0.0
2017-Oct-16 12:25N 47°16' W 122°25'0 0.0
2017-Oct-16 11:55N 47°16' W 122°25'0 0.0
2017-Oct-16 11:28N 47°16' W 122°25'0 0.0
2017-Oct-16 10:58N 47°16' W 122°25'0 0.0
2017-Oct-16 10:22N 47°16' W 122°25'0 0.0
2017-Oct-16 09:55N 47°16' W 122°25'0 0.0
2017-Oct-16 09:28N 47°16' W 122°25'0 0.0
2017-Oct-16 08:58N 47°16' W 122°25'0 0.0
2017-Oct-16 08:25N 47°16' W 122°25'0 0.0
2017-Oct-16 07:58N 47°16' W 122°25'0 0.0
2017-Oct-16 07:25N 47°16' W 122°25'0 0.0
2017-Oct-16 06:58N 47°16' W 122°25'0 0.0
2017-Oct-16 06:28N 47°16' W 122°25'0 0.0
2017-Oct-16 05:58N 47°16' W 122°25'0 0.0
2017-Oct-16 05:28N 47°16' W 122°25'0 0.0
2017-Oct-16 04:58N 47°16' W 122°25'0 0.0
2017-Oct-16 04:28N 47°16' W 122°25'0 0.0
2017-Oct-16 03:55N 47°16' W 122°25'0 0.0
2017-Oct-16 03:25N 47°16' W 122°25'0 0.0
2017-Oct-16 02:55N 47°16' W 122°25'0 0.0
2017-Oct-16 02:28N 47°16' W 122°25'0 0.0
2017-Oct-16 01:58N 47°16' W 122°25'0 0.0
2017-Oct-16 01:28N 47°16' W 122°25'0 0.0
2017-Oct-16 00:58N 47°16' W 122°25'0 0.0
2017-Oct-16 00:25N 47°16' W 122°25'0 0.0
2017-Oct-15 23:49N 47°16' W 122°25'0 0.0
2017-Oct-15 23:25N 47°16' W 122°25'0 0.0
2017-Oct-15 22:58N 47°16' W 122°25'0 0.0
2017-Oct-15 22:28N 47°16' W 122°25'0 0.0
2017-Oct-15 21:58N 47°16' W 122°25'0 1.1
2017-Oct-15 21:30N 47°16' W 122°25'1 2.1
2017-Oct-15 20:59N 47°16' W 122°24'0 0.0
2017-Oct-15 20:29N 47°16' W 122°24'1 3.0
2017-Oct-15 19:59N 47°16' W 122°26'0 0.0
2017-Oct-15 19:29N 47°16' W 122°26'0 0.0
2017-Oct-15 18:59N 47°16' W 122°26'0 0.0
2017-Oct-15 18:29N 47°16' W 122°26'0 0.0
2017-Oct-15 17:59N 47°16' W 122°26'0 0.0
2017-Oct-15 17:29N 47°16' W 122°26'0 0.0
2017-Oct-15 16:59N 47°16' W 122°26'0 0.0
2017-Oct-15 16:29N 47°16' W 122°26'0 0.0
2017-Oct-15 15:59N 47°16' W 122°26'0 0.0
2017-Oct-15 15:29N 47°16' W 122°26'0 0.0
2017-Oct-15 14:59N 47°16' W 122°26'0 0.0
2017-Oct-15 13:59N 47°16' W 122°26'0 0.0
2017-Oct-15 13:29N 47°16' W 122°26'0 0.0
2017-Oct-15 12:59N 47°16' W 122°26'0 0.0
2017-Oct-15 12:29N 47°16' W 122°26'0 0.0
2017-Oct-15 11:59N 47°16' W 122°26'0 0.0
2017-Oct-15 11:29N 47°16' W 122°26'0 0.0
2017-Oct-15 10:59N 47°16' W 122°26'0 0.0
2017-Oct-15 10:29N 47°16' W 122°26'0 0.0
2017-Oct-15 09:59N 47°16' W 122°26'0 0.0
2017-Oct-15 09:29N 47°16' W 122°26'0 0.0
2017-Oct-15 08:56N 47°16' W 122°26'0 0.0
2017-Oct-15 08:29N 47°16' W 122°26'0 0.0
2017-Oct-15 07:59N 47°16' W 122°26'0 0.0
2017-Oct-15 07:29N 47°16' W 122°26'0 0.0
2017-Oct-15 06:59N 47°16' W 122°26'0 0.0
2017-Oct-15 06:29N 47°16' W 122°26'0 0.0
2017-Oct-15 05:59N 47°16' W 122°26'0 0.0
2017-Oct-15 05:29N 47°16' W 122°26'0 0.0
2017-Oct-15 04:59N 47°16' W 122°26'0 0.0
2017-Oct-15 04:29N 47°16' W 122°26'0 0.0
2017-Oct-15 03:59N 47°16' W 122°26'0 0.0
2017-Oct-15 03:30N 47°16' W 122°26'0 0.0
2017-Oct-15 03:00N 47°16' W 122°26'1 3.0
2017-Oct-15 02:30N 47°16' W 122°24'0 0.0
2017-Oct-15 02:00N 47°16' W 122°24'0 0.1
2017-Oct-15 01:30N 47°16' W 122°24'2 4.0
2017-Oct-15 01:00N 47°17' W 122°26'0 0.9
2017-Oct-15 00:30N 47°17' W 122°27'2 3.9
2017-Oct-15 00:00N 47°19' W 122°28'3 5.6
2017-Oct-14 23:30N 47°21' W 122°25'3 5.8
2017-Oct-14 23:00N 47°23' W 122°22'3 6.1
2017-Oct-14 22:30N 47°26' W 122°24'3 6.0
2017-Oct-14 22:00N 47°29' W 122°26'3 5.9
2017-Oct-14 21:30N 47°31' W 122°27'3 6.1
2017-Oct-14 21:00N 47°34' W 122°28'3 6.0
2017-Oct-14 20:30N 47°37' W 122°28'3 6.0
2017-Oct-14 20:00N 47°40' W 122°28'3 6.0
2017-Oct-14 19:30N 47°43' W 122°28'3 6.0
2017-Oct-14 19:00N 47°46' W 122°27'3 5.9
2017-Oct-14 18:30N 47°49' W 122°28'3 5.9
2017-Oct-14 18:00N 47°52' W 122°29'3 5.6
2017-Oct-14 17:30N 47°55' W 122°30'3 6.0
2017-Oct-14 17:00N 47°57' W 122°34'3 6.7
2017-Oct-14 16:30N 47°59' W 122°37'4 5.9
2017-Oct-14 15:51N 48°03' W 122°39'2 5.9
2017-Oct-14 15:27N 48°05' W 122°40'10 5.4
2017-Oct-14 13:33N 48°13' W 122°50'1 4.7
2017-Oct-14 13:25N 48°14' W 122°50'4 6.4
2017-Oct-14 12:50N 48°17' W 122°48'3 6.5
2017-Oct-14 12:23N 48°20' W 122°47'3 9.1
2017-Oct-14 12:00N 48°23' W 122°45'510.4
2017-Oct-14 11:30N 48°29' W 122°45'611.0
2017-Oct-14 11:00N 48°34' W 122°45'510.7
2017-Oct-14 10:30N 48°39' W 122°44'5 9.3
2017-Oct-14 10:00N 48°44' W 122°46'5 9.6
2017-Oct-14 09:30N 48°47' W 122°52'510.1
2017-Oct-14 09:00N 48°49' W 122°59'510.0
2017-Oct-14 08:30N 48°52' W 123°05'5 9.6
2017-Oct-14 08:00N 48°55' W 123°11'5 9.4
2017-Oct-14 07:30N 48°58' W 123°16'5 9.3
2017-Oct-14 07:00N 49°01' W 123°21'4 8.7
2017-Oct-14 06:30N 49°05' W 123°25'5 9.2
2017-Oct-14 06:00N 49°09' W 123°23'5 9.1
2017-Oct-14 05:30N 49°14' W 123°22'4 9.0
2017-Oct-14 05:00N 49°18' W 123°19'5 9.1
2017-Oct-14 04:30N 49°19' W 123°12'4 7.5
2017-Oct-14 04:00N 49°18' W 123°07'3 7.0
2017-Oct-14 03:30N 49°18' W 123°01'2 3.4
2017-Oct-14 03:00N 49°18' W 122°59'1 1.1
2017-Oct-14 02:30N 49°18' W 122°58'0 0.0
2017-Oct-14 02:00N 49°18' W 122°58'0 0.0
2017-Oct-14 01:30N 49°18' W 122°58'0 0.0
2017-Oct-14 01:00N 49°18' W 122°58'0 0.6
2017-Oct-14 00:30N 49°18' W 122°58'0 0.8
2017-Oct-13 23:59N 49°17' W 122°57'0 0.0
2017-Oct-13 23:28N 49°17' W 122°57'0 0.0
2017-Oct-13 15:14N 49°17' W 122°57'0 0.0
2017-Oct-13 15:00N 49°17' W 122°57'0 0.1
2017-Oct-13 14:30N 49°18' W 122°57'1 2.1
2017-Oct-13 14:00N 49°18' W 122°59'3 6.9
2017-Oct-13 13:30N 49°18' W 123°04'3 6.6
2017-Oct-13 13:00N 49°19' W 123°09'2 3.7
2017-Oct-13 12:29N 49°17' W 123°10'0 0.0
2017-Oct-13 11:59N 49°17' W 123°10'0 0.0
2017-Oct-13 11:29N 49°17' W 123°10'0 0.0
2017-Oct-13 10:59N 49°17' W 123°10'0 0.0
2017-Oct-13 10:29N 49°17' W 123°10'0 0.0
2017-Oct-13 09:56N 49°17' W 123°10'0 0.0
2017-Oct-13 09:29N 49°17' W 123°10'0 0.0
2017-Oct-13 08:59N 49°17' W 123°10'0 0.0
2017-Oct-13 08:29N 49°17' W 123°10'0 0.0
2017-Oct-13 07:59N 49°17' W 123°10'0 0.0
2017-Oct-13 07:29N 49°17' W 123°10'0 0.0
2017-Oct-13 06:59N 49°17' W 123°10'0 0.0
2017-Oct-13 06:29N 49°17' W 123°10'0 0.0
2017-Oct-13 05:59N 49°17' W 123°10'0 0.0
2017-Oct-13 05:29N 49°17' W 123°10'0 0.0
2017-Oct-13 04:59N 49°17' W 123°10'0 0.8
2017-Oct-13 04:30N 49°17' W 123°10'  

Dump ship's entire track history